Time;durP1;ratioP1;P1;durP2;ratioP2;P2;SDS_P1;SDS_P2;PMS_P1;PMS_P2;Temp;Humidity;BMP_temperature;BMP_pressure;BME280_temperature;BME280_humidity;BME280_pressure;Samples;Min_cycle;Max_cycle;Signal;HPM_P1;HPM_P2
2022/10/25 00:02:00;;;;;;;35.30;21.60;;;;;;;13.22;83.71;98732.48;86984;1282;98746;-76
2022/10/25 00:04:02;;;;;;;39.20;21.30;;;;;;;13.23;83.60;98729.48;87022;1286;24208;-76
2022/10/25 00:06:03;;;;;;;41.00;20.70;;;;;;;13.24;83.70;98726.44;86946;1285;24224;-76
2022/10/25 00:08:06;;;;;;;34.50;20.90;;;;;;;13.24;83.80;98721.12;86864;1291;98823;-75
2022/10/25 00:10:08;;;;;;;34.90;21.40;;;;;;;13.24;83.84;98723.55;87180;1282;22484;-76
2022/10/25 00:12:09;;;;;;;42.40;21.80;;;;;;;13.24;83.77;98721.60;87224;1289;22500;-77
2022/10/25 00:14:17;;;;;;;42.90;21.80;;;;;;;13.24;83.87;98721.64;87328;1283;98042;-77
2022/10/25 00:16:25;;;;;;;37.40;20.40;;;;;;;13.25;83.87;98723.13;87155;1285;22905;-77
2022/10/25 00:18:26;;;;;;;42.70;21.00;;;;;;;13.26;84.08;98721.00;87186;1286;22492;-77
2022/10/25 00:20:28;;;;;;;35.20;20.10;;;;;;;13.26;83.93;98729.98;87390;1282;97710;-77
2022/10/25 00:22:30;;;;;;;34.70;19.90;;;;;;;13.26;83.97;98727.30;87411;1288;22833;-76
2022/10/25 00:24:31;;;;;;;56.90;20.30;;;;;;;13.27;84.08;98728.15;87298;1285;22467;-77
2022/10/25 00:26:33;;;;;;;60.10;20.40;;;;;;;13.27;84.00;98727.95;87400;1291;97704;-76
2022/10/25 00:28:36;;;;;;;35.60;19.40;;;;;;;13.26;83.92;98723.44;87327;1285;22488;-76
2022/10/25 00:30:37;;;;;;;43.20;19.70;;;;;;;13.27;84.12;98723.21;87318;1285;22608;-76
2022/10/25 00:32:39;;;;;;;44.50;19.10;;;;;;;13.26;84.10;98720.27;87359;1283;97939;-78
2022/10/25 00:34:40;;;;;;;37.70;20.80;;;;;;;13.24;84.11;98711.44;87468;1285;22477;-76
2022/10/25 00:36:42;;;;;;;31.60;19.50;;;;;;;13.24;83.92;98709.79;87345;1284;22523;-77
2022/10/25 00:38:44;;;;;;;50.60;21.10;;;;;;;13.24;84.00;98706.44;87386;1284;97928;-76
2022/10/25 00:40:46;;;;;;;35.50;19.30;;;;;;;13.24;84.12;98701.00;87628;1283;22495;-77
2022/10/25 00:42:48;;;;;;;33.50;20.40;;;;;;;13.24;84.10;98705.23;87462;1281;24273;-77
2022/10/25 00:45:03;;;;;;;31.40;19.80;;;;;;;13.23;84.01;98711.80;87316;1285;99178;-77
2022/10/25 00:47:39;;;;;;;36.30;20.20;;;;;;;13.22;84.03;98709.08;87524;1292;22531;-76
2022/10/25 00:49:44;;;;;;;39.80;20.70;;;;;;;13.22;84.12;98712.94;87658;1293;97754;-77
2022/10/25 00:51:54;;;;;;;30.00;18.70;;;;;;;13.22;84.23;98715.44;87875;1282;22484;-76
2022/10/25 00:53:56;;;;;;;33.20;20.10;;;;;;;13.21;84.16;98717.61;87694;1285;22653;-76
2022/10/25 00:56:11;;;;;;;27.80;19.90;;;;;;;13.21;84.22;98720.92;87668;1284;97735;-76
2022/10/25 00:58:27;;;;;;;29.80;20.60;;;;;;;13.22;84.31;98721.92;87716;1291;22588;-77
2022/10/25 01:00:28;;;;;;;37.80;22.40;;;;;;;13.22;84.36;98727.22;87313;1294;24304;-77
2022/10/25 01:02:30;;;;;;;36.40;22.30;;;;;;;13.22;84.35;98727.60;87372;1278;97956;-77
2022/10/25 01:04:32;;;;;;;32.40;22.00;;;;;;;13.22;84.39;98722.80;87165;1292;22460;-77
2022/10/25 01:06:39;;;;;;;39.40;23.30;;;;;;;13.22;84.37;98725.28;87365;1282;22510;-76
2022/10/25 01:08:43;;;;;;;34.60;23.30;;;;;;;13.22;84.47;98724.75;86950;1282;99753;-76
2022/10/25 01:10:46;;;;;;;35.90;23.50;;;;;;;13.22;84.54;98719.85;87078;1284;22514;-76
2022/10/25 01:12:47;;;;;;;39.10;22.80;;;;;;;13.22;84.33;98719.29;87103;1285;23897;-76
2022/10/25 01:14:50;;;;;;;34.40;23.10;;;;;;;13.23;84.53;98718.73;87094;1285;98299;-76
2022/10/25 01:17:12;;;;;;;31.80;23.50;;;;;;;13.23;84.58;98713.94;87059;1284;23969;-76
2022/10/25 01:19:44;;;;;;;37.90;24.10;;;;;;;13.21;84.40;98705.23;87074;1286;97854;-77
2022/10/25 01:21:56;;;;;;;36.70;24.00;;;;;;;13.24;84.65;98705.79;87242;1289;22809;-76
2022/10/25 01:24:03;;;;;;;31.10;23.30;;;;;;;13.24;84.63;98713.18;87340;1282;22507;-76
2022/10/25 01:26:32;;;;;;;35.60;24.30;;;;;;;13.24;84.57;98712.08;87346;1282;97705;-76
2022/10/25 01:28:55;;;;;;;36.40;24.60;;;;;;;13.25;84.76;98710.30;87828;1288;22494;-76
2022/10/25 01:31:21;;;;;;;31.50;23.50;;;;;;;13.25;84.60;98712.23;87415;1288;24313;-77
2022/10/25 01:33:47;;;;;;;36.80;23.80;;;;;;;13.25;84.59;98718.56;87257;1281;23002;-76
2022/10/25 01:36:23;;;;;;;35.50;22.80;;;;;;;13.26;84.88;98718.01;87385;1284;22831;-76
2022/10/25 01:38:48;;;;;;;40.20;24.50;;;;;;;13.25;84.84;98721.73;87269;1283;97905;-76
2022/10/25 01:41:05;;;;;;;39.90;25.30;;;;;;;13.25;84.57;98715.02;87008;1278;23323;-77
2022/10/25 01:43:19;;;;;;;39.30;25.30;;;;;;;13.25;84.76;98714.54;87246;1281;22731;-77
2022/10/25 01:45:27;;;;;;;39.00;25.60;;;;;;;13.26;84.90;98722.95;87152;1288;22455;-77
2022/10/25 01:47:48;;;;;;;42.20;26.20;;;;;;;13.26;84.85;98720.46;86974;1292;22481;-77
2022/10/25 01:50:01;;;;;;;38.30;24.90;;;;;;;13.25;84.69;98719.09;86895;1282;98031;-76
2022/10/25 01:52:03;;;;;;;45.40;26.10;;;;;;;13.25;84.83;98718.05;86871;1285;23667;-76
2022/10/25 01:54:23;;;;;;;38.20;25.00;;;;;;;13.25;84.91;98717.52;86930;1286;25368;-76
2022/10/25 01:56:31;;;;;;;36.80;25.60;;;;;;;13.25;84.88;98720.69;86906;1283;98384;-76
2022/10/25 01:58:42;;;;;;;38.90;26.50;;;;;;;13.25;84.83;98719.30;87112;1291;22495;-76
2022/10/25 02:01:01;;;;;;;40.10;25.80;;;;;;;13.25;84.85;98717.16;87075;1281;24435;-77
2022/10/25 02:03:17;;;;;;;42.10;25.40;;;;;;;13.24;84.95;98712.96;86894;1286;97675;-76
2022/10/25 02:05:29;;;;;;;41.00;26.00;;;;;;;13.24;84.95;98712.48;87060;1283;22475;-77
2022/10/25 02:08:15;;;;;;;39.00;25.20;;;;;;;13.22;85.00;98708.33;87107;1282;99155;-76
2022/10/25 02:10:30;;;;;;;39.80;25.20;;;;;;;13.20;84.85;98708.48;87392;1289;23579;-76
2022/10/25 02:12:40;;;;;;;40.50;24.70;;;;;;;13.18;85.04;98708.96;87090;1286;22955;-76
2022/10/25 02:14:52;;;;;;;43.10;25.00;;;;;;;13.17;84.93;98713.61;87007;1288;97806;-76
2022/10/25 02:16:59;;;;;;;33.60;22.30;;;;;;;13.15;85.05;98724.70;87081;1291;24639;-77
2022/10/25 02:19:04;;;;;;;41.50;24.80;;;;;;;13.13;84.96;98725.02;87045;1284;22580;-76
2022/10/25 02:21:09;;;;;;;41.20;23.60;;;;;;;13.10;84.90;98729.03;87075;1284;97680;-76
2022/10/25 02:23:13;;;;;;;39.70;22.60;;;;;;;13.08;84.88;98731.98;87163;1295;22470;-76
2022/10/25 02:25:17;;;;;;;54.80;24.40;;;;;;;13.05;84.84;98735.67;86982;1289;24231;-76
2022/10/25 02:27:22;;;;;;;39.70;23.40;;;;;;;13.03;84.98;98738.09;87011;1290;22505;-76
2022/10/25 02:29:26;;;;;;;45.20;25.00;;;;;;;13.02;84.94;98740.64;86813;1286;24223;-76
2022/10/25 02:31:32;;;;;;;34.80;22.70;;;;;;;13.01;85.08;98735.07;86948;1288;99092;-76
2022/10/25 02:33:35;;;;;;;34.60;22.70;;;;;;;12.99;85.01;98729.88;87070;1288;22475;-77
2022/10/25 02:35:37;;;;;;;44.30;23.20;;;;;;;12.98;84.92;98732.09;87145;1291;22478;-77
2022/10/25 02:37:39;;;;;;;42.50;24.10;;;;;;;12.97;85.08;98737.80;86927;1281;98031;-77
2022/10/25 02:39:41;;;;;;;48.60;25.10;;;;;;;12.96;85.08;98739.79;86889;1284;22795;-77
2022/10/25 02:41:43;;;;;;;42.60;24.50;;;;;;;12.96;85.16;98735.77;87218;1285;22854;-77
2022/10/25 02:43:44;;;;;;;67.80;25.90;;;;;;;12.96;85.15;98736.79;87160;1282;97824;-77
2022/10/25 02:45:46;;;;;;;45.70;24.40;;;;;;;12.96;85.06;98732.76;87178;1285;25319;-76
2022/10/25 02:47:47;;;;;;;41.60;23.50;;;;;;;12.92;85.18;98728.02;87220;1282;22714;-77
2022/10/25 02:49:49;;;;;;;46.00;25.20;;;;;;;12.95;85.04;98729.95;87178;1288;97730;-77
2022/10/25 02:51:51;;;;;;;48.00;23.20;;;;;;;12.94;85.07;98729.30;87355;1293;22595;-76
2022/10/25 02:53:52;;;;;;;46.60;23.70;;;;;;;12.94;84.97;98730.71;87472;1283;22580;-76
2022/10/25 02:56:04;;;;;;;50.60;22.80;;;;;;;12.94;85.19;98731.98;87265;1282;98273;-76
2022/10/25 02:58:05;;;;;;;50.00;22.80;;;;;;;12.91;85.21;98728.98;87342;1283;22484;-76
2022/10/25 03:00:09;;;;;;;55.10;22.10;;;;;;;12.92;85.03;98731.90;87296;1288;23763;-76
2022/10/25 03:02:10;;;;;;;37.10;20.90;;;;;;;12.92;85.10;98728.55;87318;1282;98959;-76
2022/10/25 03:04:12;;;;;;;41.30;21.70;;;;;;;12.91;85.06;98727.90;87503;1281;22496;-76
2022/10/25 03:06:14;;;;;;;43.80;20.10;;;;;;;12.90;85.03;98726.91;87506;1288;22420;-76
2022/10/25 03:08:15;;;;;;;25.30;18.20;;;;;;;12.88;85.06;98720.73;87428;1292;97816;-75
2022/10/25 03:10:17;;;;;;;36.10;18.80;;;;;;;12.87;85.12;98721.48;87242;1295;22423;-76
2022/10/25 03:12:18;;;;;;;34.00;18.30;;;;;;;12.85;85.06;98719.99;87322;1285;22479;-77
2022/10/25 03:14:20;;;;;;;33.40;17.00;;;;;;;12.83;85.11;98716.61;87190;1285;98108;-76
2022/10/25 03:16:21;;;;;;;31.60;16.70;;;;;;;12.83;85.28;98716.64;87224;1290;22217;-76
2022/10/25 03:18:23;;;;;;;30.20;17.50;;;;;;;12.81;85.12;98715.48;87185;1281;22491;-76
2022/10/25 03:20:24;;;;;;;32.50;17.40;;;;;;;12.77;85.12;98710.28;87150;1293;99006;-77
2022/10/25 03:22:26;;;;;;;26.80;17.70;;;;;;;12.77;85.05;98718.88;87217;1293;24914;-77
2022/10/25 03:24:28;;;;;;;26.70;16.70;;;;;;;12.75;85.04;98720.05;87323;1284;22862;-77
2022/10/25 03:26:29;;;;;;;28.60;18.00;;;;;;;12.72;85.13;98723.94;87206;1291;98461;-77
2022/10/25 03:28:31;;;;;;;27.10;17.90;;;;;;;12.71;85.19;98726.86;87357;1288;22496;-76
2022/10/25 03:30:35;;;;;;;25.80;18.70;;;;;;;12.68;85.16;98729.81;87540;1292;23131;-77
2022/10/25 03:32:36;;;;;;;35.10;19.30;;;;;;;12.67;85.21;98729.17;87423;1289;97731;-76
2022/10/25 03:34:38;;;;;;;51.60;19.10;;;;;;;12.66;85.24;98730.33;87448;1293;22410;-77
2022/10/25 03:36:40;;;;;;;32.90;19.70;;;;;;;12.65;85.33;98735.52;87317;1292;22451;-77
2022/10/25 03:38:41;;;;;;;39.00;20.80;;;;;;;12.64;85.21;98736.79;87252;1282;99746;-76
2022/10/25 03:40:43;;;;;;;34.40;21.00;;;;;;;12.64;85.38;98733.80;87414;1285;22863;-77
2022/10/25 03:42:45;;;;;;;44.80;25.10;;;;;;;12.63;85.23;98731.21;87551;1289;23465;-77
2022/10/25 03:44:48;;;;;;;48.40;24.10;;;;;;;12.63;85.22;98734.90;87411;1285;97806;-79
2022/10/25 03:46:49;;;;;;;59.40;24.20;;;;;;;12.63;85.32;98737.23;87369;1288;22795;-77
2022/10/25 03:48:51;;;;;;;62.80;24.70;;;;;;;12.63;85.34;98742.70;87558;1286;22533;-77
2022/10/25 03:50:53;;;;;;;53.60;25.50;;;;;;;12.63;85.44;98743.92;87348;1286;98142;-77
2022/10/25 03:52:55;;;;;;;51.70;25.10;;;;;;;12.63;85.17;98745.67;87494;1282;22500;-77
2022/10/25 03:54:56;;;;;;;47.00;26.10;;;;;;;12.63;85.28;98744.62;87435;1286;25269;-77
2022/10/25 03:56:58;;;;;;;52.10;25.90;;;;;;;12.62;85.36;98743.24;87424;1289;97989;-76
2022/10/25 03:58:59;;;;;;;40.60;24.10;;;;;;;12.63;85.30;98746.73;87518;1291;22499;-76
2022/10/25 04:01:01;;;;;;;53.60;24.90;;;;;;;12.63;85.33;98745.52;87532;1291;23515;-77
2022/10/25 04:03:02;;;;;;;59.20;25.30;;;;;;;12.63;85.47;98750.77;87413;1292;97809;-76
2022/10/25 04:05:04;;;;;;;51.10;24.00;;;;;;;12.64;85.59;98756.92;87364;1282;22487;-76
2022/10/25 04:07:06;;;;;;;47.90;23.80;;;;;;;12.64;85.33;98749.67;87301;1285;25213;-76
2022/10/25 04:09:08;;;;;;;42.30;22.50;;;;;;;12.64;85.51;98746.48;87318;1283;97715;-77
2022/10/25 04:11:09;;;;;;;39.40;20.80;;;;;;;12.64;85.33;98747.19;87403;1289;22533;-76
2022/10/25 04:13:11;;;;;;;54.30;22.00;;;;;;;12.62;85.35;98748.21;87373;1291;22740;-76
2022/10/25 04:15:13;;;;;;;36.10;21.90;;;;;;;12.65;85.38;98753.86;87087;1284;97603;-76
2022/10/25 04:17:15;;;;;;;44.60;21.30;;;;;;;12.64;85.31;98749.66;87313;1285;23085;-77
2022/10/25 04:19:16;;;;;;;39.00;20.00;;;;;;;12.64;85.42;98750.39;87247;1290;99248;-77
2022/10/25 04:21:20;;;;;;;37.90;22.30;;;;;;;12.62;85.35;98748.20;87240;1288;22570;-77
2022/10/25 04:23:21;;;;;;;32.60;20.40;;;;;;;12.63;85.39;98750.61;87402;1286;23394;-76
2022/10/25 04:25:25;;;;;;;31.80;20.30;;;;;;;12.63;85.58;98751.50;87372;1281;99311;-77
2022/10/25 04:27:26;;;;;;;30.00;20.50;;;;;;;12.63;85.48;98749.55;87750;1282;23651;-77
2022/10/25 04:29:28;;;;;;;32.70;21.40;;;;;;;12.63;85.56;98752.57;87854;1281;22533;-76
2022/10/25 04:31:31;;;;;;;31.00;21.00;;;;;;;12.62;85.48;98755.06;87607;1285;98187;-76
2022/10/25 04:33:33;;;;;;;36.30;22.70;;;;;;;12.62;85.67;98755.61;87762;1288;22472;-76
2022/10/25 04:35:34;;;;;;;39.40;24.50;;;;;;;12.61;85.72;98754.08;87566;1291;22494;-76
2022/10/25 04:37:36;;;;;;;30.70;22.30;;;;;;;12.61;85.64;98755.85;87503;1284;98722;-75
2022/10/25 04:39:38;;;;;;;36.90;23.80;;;;;;;12.61;85.62;98754.08;87748;1291;22506;-76
2022/10/25 04:41:41;;;;;;;41.60;22.70;;;;;;;12.60;85.57;98753.09;88114;1288;22406;-76
2022/10/25 04:43:43;;;;;;;39.40;23.30;;;;;;;12.60;85.74;98754.67;87421;1292;98772;-76
2022/10/25 04:45:44;;;;;;;31.20;22.30;;;;;;;12.59;85.72;98757.16;87805;1286;22515;-76
2022/10/25 04:47:46;;;;;;;33.70;22.20;;;;;;;12.59;85.64;98758.61;88170;1288;22660;-76
2022/10/25 04:49:47;;;;;;;32.90;22.90;;;;;;;12.58;85.64;98758.63;88024;1291;97850;-77
2022/10/25 04:51:49;;;;;;;35.90;24.20;;;;;;;12.58;85.67;98756.73;88199;1291;22486;-77
2022/10/25 04:53:54;;;;;;;40.20;24.20;;;;;;;12.57;85.69;98758.34;88228;1286;22510;-78
2022/10/25 04:56:02;;;;;;;38.30;24.60;;;;;;;12.58;85.73;98754.97;88199;1301;98084;-77
2022/10/25 04:58:04;;;;;;;42.30;25.30;;;;;;;12.57;85.73;98758.38;88039;1279;22484;-77
2022/10/25 05:00:06;;;;;;;41.30;26.10;;;;;;;12.56;85.76;98758.95;88311;1292;22507;-77
2022/10/25 05:02:07;;;;;;;43.40;25.30;;;;;;;12.56;85.73;98760.55;88069;1293;97921;-76
2022/10/25 05:04:09;;;;;;;41.20;24.90;;;;;;;12.55;85.77;98760.60;88245;1283;22486;-77
2022/10/25 05:06:24;;;;;;;42.90;28.00;;;;;;;12.54;85.65;98761.69;88254;1292;22898;-77
2022/10/25 05:08:25;;;;;;;38.00;24.20;;;;;;;12.54;85.82;98761.02;88126;1291;97871;-77
2022/10/25 05:10:27;;;;;;;42.10;25.90;;;;;;;12.53;85.79;98758.07;87806;1285;22505;-77
2022/10/25 05:12:28;;;;;;;47.90;25.90;;;;;;;12.53;85.82;98755.27;86764;1286;22493;-77
2022/10/25 05:14:30;;;;;;;38.60;25.10;;;;;;;12.52;85.79;98757.08;86833;1282;99426;-77
2022/10/25 05:16:33;;;;;;;39.40;25.50;;;;;;;12.51;85.79;98753.96;86968;1292;22502;-77
2022/10/25 05:18:36;;;;;;;39.00;24.70;;;;;;;12.47;85.85;98752.95;87176;1281;22501;-77
2022/10/25 05:20:37;;;;;;;36.00;24.80;;;;;;;12.50;85.88;98761.26;87809;1291;98386;-76
2022/10/25 05:22:39;;;;;;;36.60;23.60;;;;;;;12.49;85.83;98761.48;88421;1307;22545;-76
2022/10/25 05:24:40;;;;;;;31.90;24.00;;;;;;;12.45;85.74;98754.15;88548;1297;22279;-76
2022/10/25 05:26:42;;;;;;;35.90;24.70;;;;;;;12.47;85.84;98753.84;88486;1282;98267;-75
2022/10/25 05:28:48;;;;;;;34.80;23.80;;;;;;;12.42;85.83;98747.80;88304;1305;22177;-76
2022/10/25 05:30:49;;;;;;;39.20;23.80;;;;;;;12.46;85.78;98750.92;88216;1313;22530;-76
2022/10/25 05:32:51;;;;;;;34.70;23.50;;;;;;;12.46;85.80;98750.77;88148;1295;98583;-77
2022/10/25 05:34:53;;;;;;;39.10;23.20;;;;;;;12.43;85.68;98748.41;88219;1293;22629;-76
2022/10/25 05:36:54;;;;;;;31.00;22.50;;;;;;;12.42;85.78;98747.25;88421;1310;22369;-76
2022/10/25 05:38:57;;;;;;;28.90;20.90;;;;;;;12.40;85.74;98745.42;88256;1312;97935;-76
2022/10/25 05:40:59;;;;;;;42.90;22.80;;;;;;;12.38;85.75;98745.90;88401;1313;22739;-76
2022/10/25 05:43:01;;;;;;;32.30;22.70;;;;;;;12.36;85.74;98744.26;87153;1265;89729;-74
2022/10/25 05:45:02;;;;;;;42.90;24.40;;;;;;;12.34;85.80;98755.98;86504;1284;99545;-75
2022/10/25 05:47:04;;;;;;;32.40;24.90;;;;;;;12.33;85.85;98755.02;86609;1292;22460;-75
2022/10/25 05:49:06;;;;;;;38.10;22.90;;;;;;;12.30;85.85;98749.88;86602;1285;22473;-75
2022/10/25 05:51:13;;;;;;;39.20;24.00;;;;;;;12.30;85.87;98756.45;86592;1288;99031;-77
2022/10/25 05:53:15;;;;;;;40.70;24.80;;;;;;;12.27;85.95;98761.35;86628;1285;26152;-76
2022/10/25 05:55:16;;;;;;;37.90;25.10;;;;;;;12.25;85.96;98759.86;86774;1286;25467;-76
2022/10/25 05:57:19;;;;;;;37.20;25.40;;;;;;;12.23;85.89;98763.52;86642;1284;22492;-76
2022/10/25 05:59:20;;;;;;;38.80;25.50;;;;;;;12.21;85.97;98763.99;86729;1295;22521;-76
2022/10/25 06:01:25;;;;;;;34.00;23.20;;;;;;;12.20;85.91;98768.98;86641;1292;98255;-76
2022/10/25 06:03:26;;;;;;;42.60;23.40;;;;;;;12.19;85.85;98767.64;86635;1289;22438;-76
2022/10/25 06:05:28;;;;;;;37.60;23.60;;;;;;;12.18;85.90;98774.41;86650;1291;24282;-75
2022/10/25 06:07:30;;;;;;;35.80;23.70;;;;;;;12.17;85.90;98779.89;86338;1281;99565;-76
2022/10/25 06:09:31;;;;;;;37.30;25.50;;;;;;;12.17;86.08;98779.20;86561;1291;22502;-76
2022/10/25 06:11:33;;;;;;;36.60;25.10;;;;;;;12.20;86.18;98787.88;86713;1295;27214;-76
2022/10/25 06:13:36;;;;;;;34.40;24.00;;;;;;;12.20;86.08;98790.12;86620;1278;99389;-76
2022/10/25 06:15:38;;;;;;;39.00;22.70;;;;;;;12.21;86.17;98790.05;86833;1281;22559;-75
2022/10/25 06:17:39;;;;;;;41.00;22.40;;;;;;;12.21;85.90;98788.66;86955;1291;22780;-76
2022/10/25 06:19:42;;;;;;;33.10;22.50;;;;;;;12.21;86.02;98794.31;86730;1288;98370;-76
2022/10/25 06:21:45;;;;;;;32.80;22.70;;;;;;;12.21;86.25;98796.25;86718;1286;22829;-76
2022/10/25 06:23:47;;;;;;;37.30;23.40;;;;;;;12.21;85.86;98795.53;86942;1287;25710;-76
2022/10/25 06:25:49;;;;;;;44.60;22.70;;;;;;;12.19;86.03;98795.81;86938;1285;98354;-76
2022/10/25 06:27:51;;;;;;;38.00;23.40;;;;;;;12.18;85.99;98799.20;86765;1285;22551;-76
2022/10/25 06:29:52;;;;;;;46.00;22.40;;;;;;;12.18;85.98;98799.96;86851;1293;24900;-76
2022/10/25 06:31:54;;;;;;;34.50;20.40;;;;;;;12.16;86.00;98803.23;86756;1285;98113;-76
2022/10/25 06:33:58;;;;;;;48.20;20.60;;;;;;;12.15;86.12;98802.95;86943;1292;24308;-74
2022/10/25 06:36:01;;;;;;;46.60;20.80;;;;;;;12.14;86.05;98804.38;86809;1278;22540;-74
2022/10/25 06:38:03;;;;;;;37.30;19.60;;;;;;;12.12;86.06;98808.71;87348;1295;99203;-74
2022/10/25 06:40:06;;;;;;;36.50;22.20;;;;;;;12.15;86.08;98817.02;86629;1291;22504;-74
2022/10/25 06:42:07;;;;;;;31.60;22.00;;;;;;;12.18;86.29;98821.09;86741;1284;24256;-75
2022/10/25 06:44:09;;;;;;;35.50;23.90;;;;;;;12.20;86.15;98826.39;87118;1285;97928;-75
2022/10/25 06:46:20;;;;;;;32.40;22.10;;;;;;;12.23;86.13;98831.39;87164;1286;22476;-75
2022/10/25 06:48:22;;;;;;;28.30;20.80;;;;;;;12.25;86.19;98835.84;87033;1285;22607;-77
2022/10/25 06:50:24;;;;;;;35.10;20.40;;;;;;;12.28;86.19;98837.23;87059;1284;99213;-76
2022/10/25 06:52:27;;;;;;;31.50;18.70;;;;;;;12.30;86.31;98836.77;87049;1292;22512;-76
2022/10/25 06:54:29;;;;;;;27.30;17.90;;;;;;;12.26;86.13;98829.23;87084;1284;24324;-77
2022/10/25 06:56:30;;;;;;;25.30;17.60;;;;;;;12.32;86.23;98836.83;86925;1286;99301;-76
2022/10/25 06:58:34;;;;;;;30.20;19.00;;;;;;;12.33;86.09;98834.86;87051;1291;23857;-77
2022/10/25 07:00:35;;;;;;;27.20;18.60;;;;;;;12.33;86.24;98837.81;86684;1278;22541;-75
2022/10/25 07:02:37;;;;;;;28.70;19.20;;;;;;;12.34;86.08;98834.63;86218;1285;99231;-74
2022/10/25 07:04:38;;;;;;;28.90;18.30;;;;;;;12.36;86.03;98833.63;86227;1282;22615;-75
2022/10/25 07:06:40;;;;;;;29.60;19.20;;;;;;;12.38;86.14;98838.05;86065;1284;24298;-74
2022/10/25 07:08:44;;;;;;;28.90;18.80;;;;;;;12.42;86.12;98838.86;85992;1285;98212;-73
2022/10/25 07:10:55;;;;;;;32.10;19.10;;;;;;;12.47;86.33;98840.91;86147;1286;23194;-74
2022/10/25 07:12:57;;;;;;;27.50;17.60;;;;;;;12.49;86.24;98840.27;86101;1284;22581;-78
2022/10/25 07:14:58;;;;;;;28.00;17.70;;;;;;;12.58;86.28;98849.79;86132;1284;99228;-76
2022/10/25 07:17:00;;;;;;;27.20;17.70;;;;;;;12.65;86.31;98851.89;86215;1285;25331;-76
2022/10/25 07:19:03;;;;;;;27.30;18.20;;;;;;;12.70;86.43;98859.46;86211;1285;22483;-77
2022/10/25 07:21:09;;;;;;;25.80;17.10;;;;;;;12.79;86.49;98864.61;86059;1286;98005;-77
2022/10/25 07:23:10;;;;;;;22.80;15.70;;;;;;;12.86;86.40;98858.89;86207;1285;25150;-75
2022/10/25 07:25:12;;;;;;;21.70;16.30;;;;;;;12.93;86.29;98870.11;86136;1285;22591;-77
2022/10/25 07:27:14;;;;;;;19.90;15.80;;;;;;;13.00;86.49;98872.17;85899;1288;97925;-76
2022/10/25 07:29:15;;;;;;;24.00;15.10;;;;;;;13.05;86.35;98870.95;86224;1290;23367;-76
2022/10/25 07:31:22;;;;;;;20.50;14.60;;;;;;;13.10;86.38;98869.60;86387;1283;24258;-77
2022/10/25 07:33:24;;;;;;;27.70;15.20;;;;;;;13.15;86.33;98870.06;86345;1284;22467;-77
2022/10/25 07:35:26;;;;;;;32.90;15.50;;;;;;;13.19;86.34;98874.60;86215;1292;22468;-76
2022/10/25 07:37:27;;;;;;;21.20;12.10;;;;;;;13.22;86.29;98877.38;86325;1286;99014;-75
2022/10/25 07:39:29;;;;;;;19.50;12.80;;;;;;;13.25;86.28;98877.55;86303;1284;22527;-75
2022/10/25 07:41:30;;;;;;;20.20;12.10;;;;;;;13.29;86.24;98875.55;86173;1285;229982;-76
2022/10/25 07:43:33;;;;;;;17.60;12.40;;;;;;;13.30;86.29;98872.15;86182;1288;98239;-76
2022/10/25 07:45:35;;;;;;;13.50;11.70;;;;;;;13.35;86.32;98870.27;86271;1293;22519;-76
2022/10/25 07:47:37;;;;;;;16.80;10.50;;;;;;;13.38;86.23;98863.95;86489;1284;22588;-76
2022/10/25 07:49:39;;;;;;;13.40;9.60;;;;;;;13.42;86.12;98857.30;86182;1286;97970;-76
2022/10/25 07:51:40;;;;;;;13.90;8.00;;;;;;;13.49;86.12;98853.04;86275;1286;22462;-74
2022/10/25 07:53:42;;;;;;;20.90;10.20;;;;;;;13.57;86.19;98845.98;86369;1285;24287;-75
2022/10/25 07:55:51;;;;;;;12.70;9.30;;;;;;;13.65;86.26;98848.63;86207;1286;98675;-75
2022/10/25 07:58:00;;;;;;;18.30;9.80;;;;;;;13.74;86.08;98842.06;86357;1282;22532;-75
2022/10/25 08:00:02;;;;;;;17.90;10.40;;;;;;;13.84;86.02;98833.15;86288;1279;25378;-75
2022/10/25 08:02:04;;;;;;;19.10;11.00;;;;;;;13.95;85.95;98830.84;86205;1286;99349;-75
2022/10/25 08:04:05;;;;;;;13.50;9.80;;;;;;;14.04;85.94;98826.91;86330;1286;22506;-75
2022/10/25 08:06:07;;;;;;;20.30;11.50;;;;;;;14.10;85.82;98818.55;86419;1284;24143;-75
2022/10/25 08:08:09;;;;;;;16.70;11.90;;;;;;;14.19;85.76;98815.55;86434;1282;98873;-74
2022/10/25 08:10:10;;;;;;;15.00;11.10;;;;;;;14.29;85.87;98811.34;86391;1289;22544;-74
2022/10/25 08:12:12;;;;;;;16.90;9.80;;;;;;;14.40;85.82;98812.00;86300;1289;22526;-75
2022/10/25 08:14:14;;;;;;;22.70;10.20;;;;;;;14.49;85.51;98805.58;86357;1285;98050;-76
2022/10/25 08:16:16;;;;;;;12.90;10.50;;;;;;;14.58;85.59;98808.33;86284;1278;22768;-75
2022/10/25 08:18:18;;;;;;;19.20;9.70;;;;;;;14.71;85.45;98803.83;86410;1292;22602;-77
2022/10/25 08:20:19;;;;;;;14.10;9.20;;;;;;;14.81;85.38;98803.25;86440;1278;99421;-75
2022/10/25 08:22:21;;;;;;;19.40;9.80;;;;;;;14.88;85.07;98800.38;86354;1286;22491;-75
2022/10/25 08:24:24;;;;;;;11.30;8.40;;;;;;;14.92;85.17;98801.14;86581;1284;22719;-76
2022/10/25 08:26:27;;;;;;;15.10;9.00;;;;;;;14.97;84.95;98804.52;86392;1285;98829;-77
2022/10/25 08:28:30;;;;;;;13.10;8.90;;;;;;;15.03;85.01;98806.77;86457;1286;22506;-76
2022/10/25 08:30:31;;;;;;;12.30;8.00;;;;;;;15.07;84.89;98807.14;86431;1286;22526;-78
2022/10/25 08:32:36;;;;;;;14.20;7.70;;;;;;;15.12;84.77;98806.80;86466;1285;99873;-76
2022/10/25 08:34:38;;;;;;;11.30;7.20;;;;;;;15.19;84.74;98804.23;86405;1284;24221;-76
2022/10/25 08:36:40;;;;;;;13.10;7.00;;;;;;;15.26;84.64;98801.99;86435;1286;22597;-76
2022/10/25 08:38:42;;;;;;;16.10;7.50;;;;;;;15.33;84.76;98795.66;86411;1286;98596;-75
2022/10/25 08:41:02;;;;;;;9.10;6.90;;;;;;;15.42;84.51;98803.48;86312;1288;22603;-75
2022/10/25 08:43:11;;;;;;;11.70;6.60;;;;;;;15.50;84.31;98811.60;86569;1275;26525;-78
2022/10/25 08:45:27;;;;;;;8.90;6.70;;;;;;;15.55;84.21;98811.98;86347;1282;98445;-75
2022/10/25 08:47:37;;;;;;;12.80;7.40;;;;;;;15.63;84.27;98821.33;86405;1286;22993;-75
2022/10/25 08:49:46;;;;;;;12.80;6.10;;;;;;;15.69;84.15;98828.89;86280;1286;98962;-77
2022/10/25 08:51:49;;;;;;;11.90;6.70;;;;;;;15.72;83.98;98835.88;86384;1285;22551;-75
2022/10/25 08:53:55;;;;;;;14.00;6.30;;;;;;;15.76;83.88;98839.67;86479;1275;22477;-77
2022/10/25 08:56:00;;;;;;;7.40;5.70;;;;;;;15.81;83.87;98844.33;86511;1284;97781;-76
2022/10/25 08:58:06;;;;;;;15.10;6.20;;;;;;;15.80;83.62;98842.25;86516;1278;22530;-76
2022/10/25 09:00:18;;;;;;;11.40;5.80;;;;;;;15.76;83.59;98847.44;86440;1287;22646;-76
2022/10/25 09:02:44;;;;;;;15.60;6.00;;;;;;;15.73;83.49;98849.46;86246;1278;98710;-76
2022/10/25 09:04:46;;;;;;;12.60;5.80;;;;;;;15.66;83.29;98855.11;86518;1286;22488;-75
2022/10/25 09:06:55;;;;;;;9.60;4.80;;;;;;;15.61;83.27;98855.83;86448;1284;23410;-75
2022/10/25 09:08:59;;;;;;;8.60;4.90;;;;;;;15.57;83.21;98859.30;86397;1278;99059;-76
2022/10/25 09:11:20;;;;;;;7.60;5.50;;;;;;;15.54;83.18;98859.68;86472;1284;22707;-75
2022/10/25 09:13:43;;;;;;;12.30;5.20;;;;;;;15.49;83.22;98864.23;86385;1285;99234;-75
2022/10/25 09:15:48;;;;;;;11.10;4.80;;;;;;;15.45;83.22;98866.30;86524;1283;22472;-76
2022/10/25 09:17:52;;;;;;;19.70;4.90;;;;;;;15.41;83.15;98865.19;86469;1283;22497;-75
2022/10/25 09:20:16;;;;;;;9.60;5.10;;;;;;;15.38;83.36;98866.98;86636;1289;98612;-76
2022/10/25 09:22:28;;;;;;;9.10;4.60;;;;;;;15.35;83.14;98866.84;86528;1278;22513;-77
2022/10/25 09:24:36;;;;;;;5.20;3.70;;;;;;;15.32;83.03;98869.30;86596;1284;22579;-77
2022/10/25 09:26:40;;;;;;;13.10;4.60;;;;;;;15.28;83.01;98871.37;86468;1280;98685;-77
2022/10/25 09:29:05;;;;;;;14.10;4.70;;;;;;;15.21;82.63;98870.84;86780;1291;22657;-75
2022/10/25 09:31:13;;;;;;;7.50;4.70;;;;;;;15.13;82.70;98874.21;86456;1285;22554;-76
2022/10/25 09:33:21;;;;;;;6.30;4.70;;;;;;;15.07;82.52;98877.96;86240;1285;98699;-76
2022/10/25 09:35:32;;;;;;;11.20;4.80;;;;;;;15.03;82.67;98878.39;86486;1285;23063;-76
2022/10/25 09:37:46;;;;;;;;;;;;;;;15.00;82.76;98882.34;86523;1278;98523;-78